Time;durP1;ratioP1;P1;durP2;ratioP2;P2;SDS_P1;SDS_P2;PMS_P1;PMS_P2;Temp;Humidity;BMP_temperature;BMP_pressure;BME280_temperature;BME280_humidity;BME280_pressure;Samples;Min_cycle;Max_cycle;Signal;HPM_P1;HPM_P2
2022/05/12 00:01:58;;;;;;;3.40;3.10;;;21.40;74.50;;;;;;5028687;28;20469;-68
2022/05/12 00:04:31;;;;;;;5.57;4.00;;;21.30;74.60;;;;;;5028135;28;20487;-69
2022/05/12 00:06:57;;;;;;;4.07;3.73;;;21.20;74.70;;;;;;5028784;28;20452;-69
2022/05/12 00:09:23;;;;;;;3.50;3.20;;;21.10;75.20;;;;;;5029292;28;20494;-69
2022/05/12 00:11:49;;;;;;;4.80;3.40;;;21.10;75.40;;;;;;5007960;28;20468;-69
2022/05/12 00:14:15;;;;;;;5.13;4.10;;;21.10;75.40;;;;;;5008794;28;20633;-69
2022/05/12 00:16:41;;;;;;;11.63;3.97;;;21.00;75.60;;;;;;5009576;28;20491;-69
2022/05/12 00:19:07;;;;;;;7.27;3.90;;;21.00;75.90;;;;;;5008389;28;20316;-69
2022/05/12 00:21:34;;;;;;;5.00;4.20;;;21.00;75.80;;;;;;5011353;28;20563;-69
2022/05/12 00:24:00;;;;;;;7.20;4.03;;;20.90;76.10;;;;;;5023032;28;20232;-69
2022/05/12 00:26:31;;;;;;;5.17;3.37;;;20.80;76.50;;;;;;5031805;28;20525;-69
2022/05/12 00:28:58;;;;;;;5.07;3.17;;;20.70;76.70;;;;;;5034524;28;20228;-68
2022/05/12 00:31:25;;;;;;;3.70;3.40;;;20.70;76.90;;;;;;5031411;28;20484;-69
2022/05/12 00:33:51;;;;;;;3.90;3.50;;;20.80;77.10;;;;;;5028384;28;20463;-70
2022/05/12 00:36:18;;;;;;;5.80;3.70;;;20.80;77.20;;;;;;5030449;28;20490;-69
2022/05/12 00:38:44;;;;;;;3.30;2.87;;;20.70;77.20;;;;;;5046882;28;20467;-69
2022/05/12 00:41:10;;;;;;;4.20;3.77;;;20.70;77.40;;;;;;5034033;28;20473;-69
2022/05/12 00:43:48;;;;;;;3.40;3.07;;;20.70;77.60;;;;;;5025659;28;20258;-68
2022/05/12 00:46:26;;;;;;;5.07;3.03;;;20.60;78.30;;;;;;5006698;28;21029;-69
2022/05/12 00:48:55;;;;;;;3.10;2.80;;;20.50;78.20;;;;;;5026519;28;20455;-69
2022/05/12 00:51:40;;;;;;;5.90;2.63;;;20.50;78.50;;;;;;5033587;28;20492;-70
2022/05/12 00:54:12;;;;;;;4.23;2.60;;;20.50;78.80;;;;;;5035692;28;20450;-69
2022/05/12 00:56:38;;;;;;;3.10;2.80;;;20.50;79.20;;;;;;5035864;28;20546;-68
2022/05/12 00:59:10;;;;;;;2.77;2.40;;;20.40;79.40;;;;;;5035371;28;20474;-68
2022/05/12 01:01:38;;;;;;;2.53;2.33;;;20.40;79.60;;;;;;5033342;28;20470;-69
2022/05/12 01:04:05;;;;;;;3.17;2.87;;;20.30;80.00;;;;;;5014952;28;20492;-69
2022/05/12 01:06:30;;;;;;;3.60;2.80;;;20.20;81.30;;;;;;5032154;28;20974;-69
2022/05/12 01:08:56;;;;;;;4.17;2.80;;;20.20;80.60;;;;;;5034420;28;20501;-69
2022/05/12 01:11:23;;;;;;;2.90;2.70;;;20.10;80.90;;;;;;5027213;28;20228;-69
2022/05/12 01:14:01;;;;;;;2.90;2.70;;;20.10;81.20;;;;;;5015680;28;20231;-68
2022/05/12 01:16:49;;;;;;;3.80;3.50;;;20.10;81.30;;;;;;5014642;28;20547;-67
2022/05/12 01:19:30;;;;;;;3.33;3.03;;;20.10;81.30;;;;;;5007060;28;20486;-69
2022/05/12 01:21:56;;;;;;;2.97;2.77;;;20.10;81.30;;;;;;5027898;28;20469;-68
2022/05/12 01:24:31;;;;;;;5.90;2.67;;;20.20;81.30;;;;;;5033387;28;20469;-68
2022/05/12 01:26:56;;;;;;;3.10;2.60;;;20.20;81.10;;;;;;5033584;28;20504;-68
2022/05/12 01:29:22;;;;;;;2.37;2.17;;;20.20;81.10;;;;;;5033642;28;20494;-68
2022/05/12 01:31:48;;;;;;;2.47;2.27;;;20.30;81.20;;;;;;5033912;28;20228;-68
2022/05/12 01:34:14;;;;;;;4.53;2.37;;;20.30;81.10;;;;;;5035068;28;20347;-69
2022/05/12 01:36:40;;;;;;;3.00;2.50;;;20.30;81.40;;;;;;5033066;28;20212;-68
2022/05/12 01:39:08;;;;;;;3.07;2.60;;;20.30;81.30;;;;;;5029904;28;20489;-68
2022/05/12 01:41:33;;;;;;;5.37;2.20;;;20.30;81.20;;;;;;5019279;28;20467;-69
2022/05/12 01:44:01;;;;;;;3.10;2.80;;;20.30;81.70;;;;;;5027415;28;20483;-69
2022/05/12 01:46:27;;;;;;;4.40;2.70;;;20.30;81.50;;;;;;5029520;28;20312;-68
2022/05/12 01:48:53;;;;;;;4.60;2.20;;;20.30;81.70;;;;;;5044050;28;20504;-69
2022/05/12 01:51:19;;;;;;;2.40;2.20;;;20.30;81.70;;;;;;5033548;28;20904;-69
2022/05/12 01:53:45;;;;;;;2.43;2.23;;;20.30;82.00;;;;;;5013692;28;20458;-68
2022/05/12 01:56:10;;;;;;;2.47;1.93;;;20.30;82.00;;;;;;5032321;28;20700;-69
2022/05/12 01:58:37;;;;;;;6.00;2.63;;;20.30;82.10;;;;;;5013731;28;20221;-68
2022/05/12 02:01:04;;;;;;;2.93;2.10;;;20.20;82.80;;;;;;5030868;28;20286;-70
2022/05/12 02:03:30;;;;;;;2.07;1.97;;;20.20;83.00;;;;;;5031242;28;20510;-69
2022/05/12 02:05:56;;;;;;;1.80;1.70;;;20.20;82.60;;;;;;5032349;28;20547;-68
2022/05/12 02:08:21;;;;;;;2.33;1.83;;;20.20;83.10;;;;;;5029663;28;21030;-70
2022/05/12 02:10:49;;;;;;;2.17;2.03;;;20.20;83.40;;;;;;5028961;28;20306;-68
2022/05/12 02:13:18;;;;;;;2.33;2.00;;;20.20;83.20;;;;;;5032128;28;20316;-69
2022/05/12 02:15:44;;;;;;;1.97;1.87;;;20.20;83.60;;;;;;5025272;28;20462;-69
2022/05/12 02:18:10;;;;;;;1.83;1.70;;;20.20;83.80;;;;;;5029481;28;20480;-68
2022/05/12 02:20:36;;;;;;;1.80;1.70;;;20.00;84.60;;;;;;5031935;28;20497;-68
2022/05/12 02:23:03;;;;;;;2.43;1.70;;;20.00;84.80;;;;;;5031545;28;20534;-69
2022/05/12 02:25:28;;;;;;;2.10;1.90;;;19.90;85.30;;;;;;5025928;28;20466;-68
2022/05/12 02:27:55;;;;;;;1.90;1.80;;;19.90;85.30;;;;;;5046226;28;20829;-69
2022/05/12 02:30:27;;;;;;;1.63;1.53;;;19.90;86.00;;;;;;5030387;28;20229;-68
2022/05/12 02:32:53;;;;;;;1.70;1.60;;;19.80;86.40;;;;;;5029951;28;20451;-69
2022/05/12 02:35:20;;;;;;;1.63;1.53;;;19.80;86.80;;;;;;5031066;28;20513;-67
2022/05/12 02:37:46;;;;;;;1.93;1.80;;;19.80;86.90;;;;;;5025501;28;20273;-69
2022/05/12 02:40:15;;;;;;;2.23;2.03;;;19.80;87.10;;;;;;5013008;28;20464;-68
2022/05/12 02:42:41;;;;;;;2.00;1.90;;;19.70;87.50;;;;;;5038438;28;20680;-69
2022/05/12 02:45:08;;;;;;;2.30;2.10;;;19.60;88.30;;;;;;5012931;28;20455;-69
2022/05/12 02:47:34;;;;;;;3.13;1.77;;;19.50;88.50;;;;;;5029141;28;20582;-69
2022/05/12 02:49:59;;;;;;;2.70;2.07;;;19.50;89.50;;;;;;5029592;28;20467;-68
2022/05/12 02:52:25;;;;;;;2.53;1.83;;;19.40;89.60;;;;;;5013442;28;20213;-69
2022/05/12 02:54:51;;;;;;;1.53;1.43;;;19.40;89.90;;;;;;5020245;28;20215;-69
2022/05/12 02:57:17;;;;;;;1.70;1.60;;;19.40;89.70;;;;;;5049421;28;20604;-68
2022/05/12 02:59:43;;;;;;;1.90;1.80;;;19.40;89.90;;;;;;5025482;28;20246;-68
2022/05/12 03:02:09;;;;;;;1.97;1.60;;;19.40;90.40;;;;;;5027058;28;20231;-69
2022/05/12 03:04:35;;;;;;;5.70;2.07;;;19.30;90.50;;;;;;5025886;28;20257;-68
2022/05/12 03:07:00;;;;;;;2.17;1.93;;;19.30;90.70;;;;;;5030887;28;20455;-69
2022/05/12 03:09:26;;;;;;;2.00;1.90;;;19.20;90.80;;;;;;5011782;28;20551;-69
2022/05/12 03:11:52;;;;;;;1.77;1.67;;;19.20;91.00;;;;;;5011746;28;20250;-68
2022/05/12 03:14:18;;;;;;;3.50;1.63;;;19.30;90.90;;;;;;5030172;28;20228;-69
2022/05/12 03:16:43;;;;;;;3.80;2.10;;;19.30;91.10;;;;;;5029321;28;20278;-68
2022/05/12 03:19:10;;;;;;;2.37;1.73;;;19.30;90.90;;;;;;5012749;28;20228;-68
2022/05/12 03:21:36;;;;;;;4.20;2.07;;;19.30;91.10;;;;;;5027222;28;20219;-69
2022/05/12 03:24:04;;;;;;;5.50;1.90;;;19.30;91.40;;;;;;5044376;28;20470;-68
2022/05/12 03:26:30;;;;;;;1.60;1.50;;;19.30;91.60;;;;;;5012311;28;20495;-69
2022/05/12 03:28:56;;;;;;;1.97;1.80;;;19.20;91.50;;;;;;5045675;28;20519;-67
2022/05/12 03:31:22;;;;;;;1.83;1.73;;;19.30;91.40;;;;;;5044521;28;20456;-68
2022/05/12 03:33:48;;;;;;;4.30;1.97;;;19.20;91.90;;;;;;5024521;28;20471;-68
2022/05/12 03:36:15;;;;;;;2.23;2.00;;;19.30;91.40;;;;;;5029976;28;20247;-68
2022/05/12 03:38:42;;;;;;;2.83;1.70;;;19.30;91.40;;;;;;5022741;28;20614;-68
2022/05/12 03:41:07;;;;;;;3.90;3.60;;;19.30;91.70;;;;;;5030011;28;20467;-68
2022/05/12 03:46:17;;;;;;;1.67;1.57;;;19.20;91.70;;;;;;5029451;28;20234;-69
2022/05/12 03:48:43;;;;;;;3.10;1.70;;;19.20;91.60;;;;;;5029874;28;20962;-67
2022/05/12 03:51:10;;;;;;;2.10;1.97;;;19.20;91.80;;;;;;5036782;28;20224;-68
2022/05/12 03:53:36;;;;;;;1.90;1.53;;;19.10;91.90;;;;;;5011984;28;20708;-67
2022/05/12 03:56:04;;;;;;;2.70;1.93;;;19.10;92.20;;;;;;5028284;28;20509;-66
2022/05/12 03:58:31;;;;;;;2.13;1.93;;;19.10;92.40;;;;;;5029084;28;20451;-66
2022/05/12 04:00:57;;;;;;;3.90;2.17;;;19.00;92.30;;;;;;5029757;28;20470;-66
2022/05/12 04:03:23;;;;;;;1.93;1.83;;;18.90;92.40;;;;;;5029695;28;20516;-65
2022/05/12 04:05:49;;;;;;;2.63;2.00;;;18.90;92.50;;;;;;5027937;28;20436;-66
2022/05/12 04:08:15;;;;;;;2.60;2.40;;;18.90;92.80;;;;;;5028467;28;20217;-66
2022/05/12 04:10:41;;;;;;;2.30;2.10;;;18.80;92.90;;;;;;5011033;28;20458;-66
2022/05/12 04:13:07;;;;;;;2.73;1.93;;;18.80;92.90;;;;;;5011700;28;20447;-68
2022/05/12 04:15:33;;;;;;;1.97;1.87;;;18.80;93.00;;;;;;5029359;28;20238;-68
2022/05/12 04:18:04;;;;;;;2.43;2.03;;;18.70;93.20;;;;;;5027976;28;20701;-67
2022/05/12 04:20:32;;;;;;;2.37;2.17;;;18.70;93.40;;;;;;5027583;28;20636;-68
2022/05/12 04:22:58;;;;;;;2.47;2.20;;;18.60;93.40;;;;;;5026297;28;20997;-68
2022/05/12 04:25:24;;;;;;;1.83;1.73;;;18.60;93.60;;;;;;5027686;28;20475;-66
2022/05/12 04:27:50;;;;;;;3.40;1.80;;;18.60;93.60;;;;;;5028803;28;20939;-67
2022/05/12 04:30:18;;;;;;;1.87;1.70;;;18.50;93.80;;;;;;5029845;28;20521;-68
2022/05/12 04:32:44;;;;;;;2.03;1.80;;;18.50;93.80;;;;;;5012112;28;20312;-67
2022/05/12 04:35:12;;;;;;;1.80;1.70;;;18.50;93.90;;;;;;5010079;28;20531;-68
2022/05/12 04:37:53;;;;;;;2.10;1.60;;;18.50;93.90;;;;;;5022847;28;20242;-68
2022/05/12 04:40:25;;;;;;;3.03;2.20;;;18.50;93.90;;;;;;5025513;28;20474;-67
2022/05/12 04:42:52;;;;;;;2.13;2.00;;;18.50;94.00;;;;;;5026731;28;20523;-68
2022/05/12 04:45:20;;;;;;;1.90;1.60;;;18.50;94.10;;;;;;5028701;28;20479;-68
2022/05/12 04:47:46;;;;;;;3.87;1.70;;;18.50;94.30;;;;;;5028453;28;21094;-68
2022/05/12 04:50:16;;;;;;;1.80;1.60;;;18.50;94.10;;;;;;5028247;28;20808;-66
2022/05/12 04:52:42;;;;;;;2.20;2.00;;;18.50;94.10;;;;;;5025570;28;20911;-68
2022/05/12 04:55:09;;;;;;;1.80;1.70;;;18.50;94.20;;;;;;5019274;28;20451;-67
2022/05/12 04:57:37;;;;;;;1.70;1.60;;;18.40;94.00;;;;;;5002303;28;20990;-68
2022/05/12 05:00:03;;;;;;;3.30;1.90;;;18.40;94.10;;;;;;5026538;28;20491;-67
2022/05/12 05:02:29;;;;;;;3.53;2.20;;;18.40;94.10;;;;;;5026404;28;20568;-68
2022/05/12 05:04:55;;;;;;;2.20;1.60;;;18.40;94.00;;;;;;5017056;28;20471;-67
2022/05/12 05:07:22;;;;;;;2.40;1.97;;;18.30;93.90;;;;;;5025007;28;20229;-68
2022/05/12 05:09:48;;;;;;;2.90;1.70;;;18.30;93.80;;;;;;5025333;28;20223;-66
2022/05/12 05:12:14;;;;;;;1.40;1.30;;;18.40;93.80;;;;;;5027823;28;20474;-68
2022/05/12 05:14:39;;;;;;;1.40;1.30;;;18.30;93.60;;;;;;5024498;28;20219;-68
2022/05/12 05:17:05;;;;;;;2.30;1.93;;;18.30;93.70;;;;;;5024830;28;20239;-67
2022/05/12 05:19:31;;;;;;;4.20;1.93;;;18.30;93.50;;;;;;5026613;28;20262;-67
2022/05/12 05:21:57;;;;;;;5.20;2.17;;;18.30;93.60;;;;;;5047466;28;20570;-69
2022/05/12 05:24:23;;;;;;;1.80;1.43;;;18.30;93.70;;;;;;5031500;28;20233;-68
2022/05/12 05:26:49;;;;;;;2.47;1.43;;;18.40;93.80;;;;;;5024282;28;20223;-68
2022/05/12 05:29:14;;;;;;;1.63;1.33;;;18.40;93.80;;;;;;5002273;28;20463;-65
2022/05/12 05:31:40;;;;;;;2.30;1.40;;;18.40;93.80;;;;;;5011081;28;20227;-68
2022/05/12 05:34:06;;;;;;;3.43;1.90;;;18.50;93.80;;;;;;5032884;28;20579;-68
2022/05/12 05:36:32;;;;;;;2.20;1.57;;;18.50;94.00;;;;;;5030688;28;20303;-68
2022/05/12 05:38:58;;;;;;;2.80;1.63;;;18.50;94.00;;;;;;5026448;28;20213;-68
2022/05/12 05:41:23;;;;;;;4.40;1.50;;;18.50;93.90;;;;;;5028701;28;20239;-68
2022/05/12 05:43:49;;;;;;;2.17;1.63;;;18.50;93.90;;;;;;5026591;28;20460;-69
2022/05/12 05:46:16;;;;;;;2.70;1.80;;;18.50;93.80;;;;;;5028896;28;20220;-68
2022/05/12 05:48:43;;;;;;;3.23;1.80;;;18.50;93.90;;;;;;5024951;28;20220;-69
2022/05/12 05:53:54;;;;;;;3.27;2.00;;;18.50;93.90;;;;;;5025385;28;20459;-68
2022/05/12 05:56:20;;;;;;;2.30;1.47;;;18.50;93.90;;;;;;5028900;28;20448;-70
2022/05/12 05:58:46;;;;;;;5.33;1.83;;;18.60;93.70;;;;;;5026209;28;20436;-68
2022/05/12 06:01:12;;;;;;;2.73;1.50;;;18.60;93.70;;;;;;5025640;28;20459;-68
2022/05/12 06:03:39;;;;;;;3.30;1.40;;;18.60;93.80;;;;;;5024568;28;20237;-69
2022/05/12 06:06:06;;;;;;;1.80;1.70;;;18.60;93.80;;;;;;5007133;28;20463;-68
2022/05/12 06:08:31;;;;;;;1.80;1.33;;;18.70;93.60;;;;;;5027435;28;20474;-68
2022/05/12 06:11:03;;;;;;;1.70;1.40;;;18.70;93.60;;;;;;5028468;28;21058;-68
2022/05/12 06:13:29;;;;;;;1.40;1.30;;;18.70;93.50;;;;;;5023879;28;20213;-70
2022/05/12 06:15:54;;;;;;;1.93;1.60;;;18.70;93.30;;;;;;5026371;28;20504;-69
2022/05/12 06:18:20;;;;;;;1.63;1.50;;;18.70;93.40;;;;;;5027291;28;20459;-68
2022/05/12 06:20:47;;;;;;;3.43;1.30;;;18.80;93.30;;;;;;5011897;28;20645;-69
2022/05/12 06:23:14;;;;;;;3.13;1.33;;;18.80;93.20;;;;;;5021103;28;21049;-69
2022/05/12 06:25:39;;;;;;;2.27;1.90;;;18.90;93.20;;;;;;5008175;28;20470;-68
2022/05/12 06:28:07;;;;;;;3.53;1.53;;;18.90;93.20;;;;;;5028133;28;20463;-68
2022/05/12 06:30:33;;;;;;;1.43;1.33;;;18.90;93.10;;;;;;5028966;28;20659;-69
2022/05/12 06:33:00;;;;;;;4.93;1.50;;;18.90;93.10;;;;;;5029378;28;20474;-69
2022/05/12 06:35:26;;;;;;;1.90;1.70;;;19.00;93.00;;;;;;5028092;28;20538;-69
2022/05/12 06:37:51;;;;;;;1.90;1.13;;;19.00;93.00;;;;;;5028504;28;21034;-69
2022/05/12 06:40:19;;;;;;;2.83;1.33;;;19.00;93.00;;;;;;5027870;28;20224;-69
2022/05/12 06:42:44;;;;;;;2.23;1.33;;;19.00;93.00;;;;;;5020963;28;20537;-66
2022/05/12 06:45:13;;;;;;;1.93;1.13;;;19.10;93.00;;;;;;5006529;28;20479;-69
2022/05/12 06:47:46;;;;;;;1.70;1.37;;;19.10;93.00;;;;;;5020764;28;20679;-69
2022/05/12 06:50:12;;;;;;;2.37;1.60;;;19.10;93.10;;;;;;5023370;28;20546;-70
2022/05/12 06:52:38;;;;;;;2.00;1.60;;;19.10;93.10;;;;;;5022674;28;20471;-69
2022/05/12 06:55:04;;;;;;;1.93;1.50;;;19.10;93.30;;;;;;5004236;28;20549;-67
2022/05/12 06:57:30;;;;;;;1.50;1.40;;;19.20;93.20;;;;;;5023236;28;20217;-68
2022/05/12 06:59:57;;;;;;;1.53;1.40;;;19.20;93.30;;;;;;5011787;28;20463;-68
2022/05/12 07:02:24;;;;;;;1.93;1.50;;;19.20;93.20;;;;;;5020451;28;20463;-68
2022/05/12 07:04:52;;;;;;;4.37;1.80;;;19.30;93.40;;;;;;4999855;28;20464;-68
2022/05/12 07:07:20;;;;;;;3.13;1.40;;;19.30;93.10;;;;;;5020886;28;20506;-68
2022/05/12 07:09:47;;;;;;;2.30;1.53;;;19.40;93.10;;;;;;5021596;28;20838;-68
2022/05/12 07:12:13;;;;;;;2.60;1.70;;;19.50;93.30;;;;;;5020881;28;20833;-69
2022/05/12 07:14:39;;;;;;;2.40;1.40;;;19.50;93.20;;;;;;5019186;28;20464;-69
2022/05/12 07:17:04;;;;;;;2.57;1.67;;;19.50;92.90;;;;;;5004441;28;20475;-69
2022/05/12 07:19:33;;;;;;;3.33;1.67;;;19.50;92.70;;;;;;5015450;28;20232;-69
2022/05/12 07:27:38;;;;;;;4.10;1.50;;;19.60;92.60;;;;;;4980562;28;20520;-69
2022/05/12 07:30:06;;;;;;;1.67;1.57;;;19.70;92.40;;;;;;5009655;28;20467;-69
2022/05/12 07:32:32;;;;;;;1.80;1.57;;;19.80;92.50;;;;;;5021858;28;21081;-70
2022/05/12 07:34:58;;;;;;;2.60;2.40;;;19.80;92.50;;;;;;5017926;28;20459;-69
2022/05/12 07:37:24;;;;;;;1.50;1.40;;;19.90;92.40;;;;;;5025179;28;20239;-70
2022/05/12 07:39:50;;;;;;;4.57;1.30;;;19.90;92.20;;;;;;5009270;28;20652;-69
2022/05/12 07:42:15;;;;;;;2.20;1.30;;;20.00;92.50;;;;;;5023243;28;20541;-69
2022/05/12 07:44:41;;;;;;;2.00;1.00;;;20.10;92.50;;;;;;5020007;28;20334;-69
2022/05/12 07:47:10;;;;;;;2.87;1.77;;;20.10;92.30;;;;;;5026860;28;20243;-69
2022/05/12 07:49:36;;;;;;;2.53;1.60;;;20.20;92.40;;;;;;5027362;28;20741;-69
2022/05/12 07:52:06;;;;;;;1.20;1.20;;;20.30;92.20;;;;;;5025540;28;20463;-68
2022/05/12 07:54:32;;;;;;;2.70;1.70;;;20.40;92.00;;;;;;5022606;28;20443;-70
2022/05/12 07:56:57;;;;;;;2.70;1.60;;;20.40;91.50;;;;;;5023519;28;20516;-68
2022/05/12 07:59:23;;;;;;;2.60;1.47;;;20.50;91.70;;;;;;5027229;28;20234;-68
2022/05/12 08:01:49;;;;;;;2.80;1.23;;;20.60;91.20;;;;;;5023316;28;20220;-68
2022/05/12 08:04:15;;;;;;;4.10;1.50;;;20.60;91.30;;;;;;5007182;28;20233;-68
2022/05/12 08:06:43;;;;;;;1.40;1.30;;;20.70;91.10;;;;;;5026404;28;20715;-69
2022/05/12 08:09:09;;;;;;;3.53;1.57;;;20.70;90.90;;;;;;5025809;28;20964;-71
2022/05/12 08:11:35;;;;;;;1.63;1.53;;;20.80;91.10;;;;;;5022850;28;20960;-69
2022/05/12 08:14:00;;;;;;;3.03;1.53;;;20.80;91.00;;;;;;5025082;28;20487;-69
2022/05/12 08:16:26;;;;;;;2.17;1.60;;;20.90;91.10;;;;;;5022953;28;20251;-69
2022/05/12 08:18:52;;;;;;;3.73;1.73;;;21.00;91.20;;;;;;5026692;28;20228;-69
2022/05/12 08:21:19;;;;;;;6.57;1.53;;;21.10;91.20;;;;;;5010312;28;20600;-70
2022/05/12 08:23:47;;;;;;;1.70;1.60;;;21.10;91.20;;;;;;5027764;28;20239;-69
2022/05/12 08:26:12;;;;;;;1.73;1.63;;;21.20;91.30;;;;;;5024609;28;20463;-69
2022/05/12 08:28:40;;;;;;;2.23;2.03;;;21.30;91.20;;;;;;5014914;28;20467;-70
2022/05/12 08:31:05;;;;;;;1.80;1.60;;;21.40;91.20;;;;;;5018162;28;20258;-69
2022/05/12 08:33:33;;;;;;;4.03;1.70;;;21.50;91.30;;;;;;5017782;28;20467;-68
2022/05/12 08:35:59;;;;;;;3.47;1.63;;;21.60;91.20;;;;;;5013487;28;20653;-69
2022/05/12 08:38:25;;;;;;;3.00;1.83;;;21.70;91.10;;;;;;5020184;28;20489;-72
2022/05/12 08:40:52;;;;;;;1.47;1.37;;;21.70;91.10;;;;;;5019996;28;20530;-72
2022/05/12 08:43:44;;;;;;;4.67;1.70;;;21.70;91.00;;;;;;5015103;28;20869;-68
2022/05/12 08:46:20;;;;;;;1.90;1.50;;;21.80;91.20;;;;;;5013604;28;20490;-72
2022/05/12 08:48:47;;;;;;;2.00;1.63;;;22.00;90.80;;;;;;5028380;28;20984;-71
2022/05/12 08:51:17;;;;;;;1.70;1.60;;;22.10;90.60;;;;;;5024771;28;20979;-71
2022/05/12 08:54:07;;;;;;;1.00;1.00;;;22.20;88.80;;;;;;5023268;28;20459;-72
2022/05/12 08:56:35;;;;;;;1.17;1.10;;;22.20;88.40;;;;;;5027137;28;20481;-72
2022/05/12 08:59:01;;;;;;;4.47;1.43;;;22.20;88.50;;;;;;5028842;28;20450;-71
2022/05/12 09:01:36;;;;;;;1.50;1.40;;;22.20;88.80;;;;;;5030979;28;20471;-72
2022/05/12 09:04:25;;;;;;;1.53;1.40;;;22.30;89.70;;;;;;5029250;28;20519;-71
2022/05/12 09:07:09;;;;;;;2.47;1.40;;;22.40;89.50;;;;;;5027094;28;20472;-72
2022/05/12 09:09:56;;;;;;;4.00;1.53;;;22.50;89.20;;;;;;5026319;28;20469;-71
2022/05/12 09:12:31;;;;;;;3.20;1.30;;;22.60;88.50;;;;;;5033672;28;20462;-71
2022/05/12 09:15:15;;;;;;;1.30;1.20;;;22.60;87.50;;;;;;5026349;28;20450;-71
2022/05/12 09:17:52;;;;;;;2.60;1.40;;;22.70;87.00;;;;;;5026334;28;20462;-71
2022/05/12 09:20:18;;;;;;;1.70;1.60;;;22.80;87.30;;;;;;5030998;28;20474;-71
2022/05/12 09:22:44;;;;;;;1.43;1.00;;;22.80;86.60;;;;;;5025702;28;20462;-71
2022/05/12 09:25:26;;;;;;;3.33;1.67;;;22.90;86.50;;;;;;5009248;28;20470;-72
2022/05/12 09:27:53;;;;;;;1.33;1.23;;;22.90;86.90;;;;;;5020767;28;20458;-72
2022/05/12 09:30:34;;;;;;;1.67;1.57;;;23.00;87.20;;;;;;5022741;28;20474;-70
2022/05/12 09:33:00;;;;;;;5.13;1.60;;;23.10;87.70;;;;;;5026610;28;20887;-71
2022/05/12 09:35:28;;;;;;;1.87;1.20;;;23.30;88.30;;;;;;5026136;28;20796;-71
2022/05/12 09:37:54;;;;;;;1.53;1.43;;;23.40;87.40;;;;;;5007848;28;20466;-76
2022/05/12 09:40:39;;;;;;;2.03;1.50;;;23.40;86.10;;;;;;5026233;28;20517;-71
2022/05/12 09:43:32;;;;;;;2.60;1.67;;;23.50;86.50;;;;;;5026253;28;20494;-72
2022/05/12 09:46:05;;;;;;;1.53;1.43;;;23.50;86.40;;;;;;4997692;28;20459;-71
2022/05/12 09:48:34;;;;;;;1.77;1.67;;;23.50;85.80;;;;;;5006862;28;20462;-71
2022/05/12 09:51:24;;;;;;;1.90;1.80;;;23.50;85.80;;;;;;5021975;28;20489;-70
2022/05/12 09:54:12;;;;;;;3.40;1.67;;;23.60;86.60;;;;;;5023315;28;20471;-70
2022/05/12 09:56:40;;;;;;;1.73;1.63;;;23.70;85.80;;;;;;5023441;28;21101;-71
2022/05/12 09:59:14;;;;;;;2.20;1.30;;;23.80;86.00;;;;;;5017206;28;20499;-70
2022/05/12 10:01:49;;;;;;;3.43;1.40;;;23.80;86.40;;;;;;5024830;28;20464;-71
2022/05/12 10:10:01;;;;;;;2.83;1.30;;;24.00;85.30;;;;;;5027433;28;20512;-71
2022/05/12 10:12:35;;;;;;;2.27;1.57;;;24.10;85.00;;;;;;5027321;28;20454;-71
2022/05/12 10:15:09;;;;;;;1.47;1.37;;;24.20;84.40;;;;;;5023983;28;20457;-71
2022/05/12 10:17:44;;;;;;;1.57;1.47;;;24.20;84.80;;;;;;5023218;28;20519;-71
2022/05/12 10:20:20;;;;;;;2.10;1.60;;;24.30;84.60;;;;;;5020514;28;20498;-71
2022/05/12 10:22:58;;;;;;;3.43;2.20;;;24.40;83.20;;;;;;5017610;28;20450;-69
2022/05/12 10:25:33;;;;;;;1.87;1.17;;;24.50;82.80;;;;;;5006570;28;20565;-71
2022/05/12 10:28:14;;;;;;;2.10;1.60;;;24.50;81.30;;;;;;5018258;28;20461;-71
2022/05/12 10:30:50;;;;;;;2.13;1.93;;;24.60;81.70;;;;;;5027238;28;20473;-69
2022/05/12 10:33:31;;;;;;;3.00;1.70;;;24.70;81.20;;;;;;5026273;28;20466;-72
2022/05/12 10:36:27;;;;;;;1.93;1.77;;;24.80;82.20;;;;;;5017177;28;20469;-70
2022/05/12 10:39:04;;;;;;;2.47;1.70;;;24.90;82.60;;;;;;5022418;28;20446;-74
2022/05/12 10:41:46;;;;;;;1.60;1.50;;;25.00;82.10;;;;;;5021188;28;20875;-71
2022/05/12 10:44:22;;;;;;;2.60;2.17;;;25.00;82.00;;;;;;5023205;28;20502;-70
2022/05/12 10:47:16;;;;;;;2.27;2.10;;;25.00;81.20;;;;;;5024063;28;20463;-70
2022/05/12 10:49:51;;;;;;;3.13;1.70;;;25.10;80.80;;;;;;5023549;28;20835;-71
2022/05/12 10:52:21;;;;;;;1.97;1.83;;;25.20;81.00;;;;;;5005555;28;20459;-71
2022/05/12 10:54:59;;;;;;;1.70;1.60;;;25.30;81.60;;;;;;5005764;28;20480;-73
2022/05/12 10:57:35;;;;;;;2.70;2.23;;;25.30;80.60;;;;;;5008688;28;20476;-70
2022/05/12 11:00:08;;;;;;;1.50;1.40;;;25.40;80.10;;;;;;5025306;28;20463;-71
2022/05/12 11:02:43;;;;;;;3.23;1.53;;;25.50;77.20;;;;;;5023399;28;20528;-72
2022/05/12 11:05:13;;;;;;;1.87;1.30;;;25.50;76.80;;;;;;5006345;28;20497;-71
2022/05/12 11:07:44;;;;;;;1.97;1.20;;;25.50;76.90;;;;;;5006829;28;20537;-71
2022/05/12 11:10:39;;;;;;;2.63;1.53;;;25.60;76.80;;;;;;5022377;28;20494;-73
2022/05/12 11:13:12;;;;;;;2.63;1.60;;;25.60;76.50;;;;;;5025209;28;21040;-71
2022/05/12 11:15:55;;;;;;;2.10;1.60;;;25.60;76.50;;;;;;5021322;28;20469;-71
2022/05/12 11:18:34;;;;;;;1.33;1.20;;;25.70;77.40;;;;;;5019811;28;20485;-72
2022/05/12 11:21:20;;;;;;;2.47;1.53;;;25.90;77.60;;;;;;5025522;28;20977;-72
2022/05/12 11:24:12;;;;;;;2.77;1.63;;;25.80;75.30;;;;;;5022682;28;20481;-70
2022/05/12 11:26:57;;;;;;;1.23;1.10;;;25.90;76.60;;;;;;5025234;28;21017;-71
2022/05/12 11:29:41;;;;;;;2.00;1.57;;;26.00;77.40;;;;;;5023364;28;20546;-71
2022/05/12 11:32:29;;;;;;;1.60;1.50;;;26.30;75.30;;;;;;5022218;28;20459;-72
2022/05/12 11:35:01;;;;;;;2.93;1.30;;;26.50;75.40;;;;;;5022811;28;20443;-71
2022/05/12 11:37:36;;;;;;;2.57;1.30;;;26.50;74.40;;;;;;5018026;28;20459;-71
2022/05/12 11:40:09;;;;;;;4.77;1.57;;;26.70;74.00;;;;;;5021190;28;20553;-72
2022/05/12 11:45:48;;;;;;;1.80;1.50;;;26.70;72.20;;;;;;5018913;28;20520;-72
2022/05/12 11:48:39;;;;;;;1.17;1.07;;;26.90;73.30;;;;;;5019528;28;20462;-72
2022/05/12 11:51:26;;;;;;;1.27;1.17;;;26.90;72.40;;;;;;5022668;28;20486;-72
2022/05/12 11:54:01;;;;;;;1.73;1.30;;;27.00;71.10;;;;;;5003448;28;20227;-69
2022/05/12 11:56:46;;;;;;;1.45;1.20;;;27.00;71.20;;;;;;5025462;28;20219;-70
2022/05/12 11:59:24;;;;;;;1.63;1.40;;;27.00;72.00;;;;;;5017387;28;20295;-69
2022/05/12 12:01:57;;;;;;;3.33;1.60;;;27.10;72.50;;;;;;5013215;28;20240;-70
2022/05/12 12:04:45;;;;;;;1.17;1.00;;;27.10;71.20;;;;;;5022053;28;20254;-71
2022/05/12 12:07:35;;;;;;;1.20;1.10;;;27.00;69.60;;;;;;5019359;28;20270;-71
2022/05/12 12:10:25;;;;;;;4.20;1.80;;;27.00;70.80;;;;;;4988277;28;20315;-71
2022/05/12 12:12:56;;;;;;;2.95;1.65;;;27.00;71.00;;;;;;5023711;28;20212;-72
2022/05/12 12:15:30;;;;;;;1.60;1.50;;;27.00;70.80;;;;;;5027356;28;20216;-71
2022/05/12 12:17:57;;;;;;;4.60;2.50;;;27.00;72.00;;;;;;5024627;28;20680;-71
2022/05/12 12:20:31;;;;;;;1.93;1.63;;;27.00;71.60;;;;;;5007601;28;20231;-71
2022/05/12 12:23:17;;;;;;;1.60;1.50;;;27.10;70.70;;;;;;5008785;28;20582;-73
2022/05/12 12:26:06;;;;;;;4.27;1.40;;;27.20;70.30;;;;;;5018097;28;20592;-73
2022/05/12 12:29:08;;;;;;;1.60;1.20;;;27.30;70.00;;;;;;5025374;28;20591;-71
2022/05/12 12:31:37;;;;;;;1.50;1.38;;;27.50;70.60;;;;;;5023632;28;20216;-72
2022/05/12 12:34:12;;;;;;;1.65;1.55;;;27.60;68.50;;;;;;5004423;28;20281;-71
2022/05/12 12:37:08;;;;;;;1.25;1.17;;;27.60;68.40;;;;;;5030473;28;20303;-72
2022/05/12 12:39:47;;;;;;;3.10;1.58;;;27.60;68.10;;;;;;5019225;28;20209;-72
2022/05/12 12:42:27;;;;;;;3.00;2.65;;;27.50;67.60;;;;;;5010356;28;20230;-72
2022/05/12 12:44:56;;;;;;;1.70;1.42;;;27.40;67.40;;;;;;5022776;28;20278;-71
2022/05/12 12:47:44;;;;;;;1.70;1.48;;;27.30;68.10;;;;;;5024026;28;20266;-71
2022/05/12 12:50:35;;;;;;;1.40;1.17;;;27.30;68.80;;;;;;5026842;28;20216;-72
2022/05/12 12:53:00;;;;;;;1.40;1.30;;;27.50;69.00;;;;;;5024466;28;20688;-71
2022/05/12 12:58:30;;;;;;;1.48;1.20;;;27.60;67.20;;;;;;5024491;28;20676;-72
2022/05/12 13:00:59;;;;;;;2.63;1.90;;;27.60;66.80;;;;;;5009148;28;20231;-73
2022/05/12 13:03:30;;;;;;;3.27;1.60;;;27.60;66.90;;;;;;5026112;28;20244;-72
2022/05/12 13:06:10;;;;;;;2.47;1.50;;;27.70;67.60;;;;;;5025763;28;20466;-73
2022/05/12 13:08:36;;;;;;;3.30;1.50;;;27.80;67.20;;;;;;5024736;28;20277;-72
2022/05/12 13:11:05;;;;;;;4.38;1.95;;;27.80;66.20;;;;;;5024306;28;20228;-71
2022/05/12 13:13:31;;;;;;;6.70;1.98;;;27.80;66.50;;;;;;5019233;28;20220;-71
2022/05/12 13:16:03;;;;;;;1.92;1.20;;;27.90;66.20;;;;;;5024812;28;20244;-71
2022/05/12 13:18:49;;;;;;;3.42;3.15;;;27.90;66.10;;;;;;5022037;28;20251;-72
2022/05/12 13:21:36;;;;;;;1.45;1.13;;;28.00;66.50;;;;;;5025812;28;20314;-72
2022/05/12 13:24:15;;;;;;;2.20;1.50;;;28.00;65.80;;;;;;5025017;28;20228;-71
2022/05/12 13:26:45;;;;;;;2.67;1.30;;;28.10;66.50;;;;;;5021952;28;20339;-71
2022/05/12 13:29:23;;;;;;;4.55;1.67;;;28.20;65.10;;;;;;5007841;28;20703;-70